createdAt,value
2019-01-13T00:00:02.569Z,6.50
2019-01-13T00:02:33.490Z,6.50
2019-01-13T00:05:05.883Z,6.50
2019-01-13T00:07:37.193Z,6.50
2019-01-13T00:10:08.452Z,6.50
2019-01-13T00:12:39.303Z,6.50
2019-01-13T00:15:11.163Z,6.50
2019-01-13T00:17:42.143Z,6.50
2019-01-13T00:20:13.659Z,6.40
2019-01-13T00:22:44.447Z,6.40
2019-01-13T00:25:15.298Z,6.40
2019-01-13T00:27:46.500Z,6.40
2019-01-13T00:30:20.801Z,6.40
2019-01-13T00:32:51.925Z,6.40
2019-01-13T00:35:23.120Z,6.40
2019-01-13T00:37:54.272Z,6.40
2019-01-13T00:40:25.085Z,6.40
2019-01-13T00:42:55.941Z,6.50
2019-01-13T00:45:26.911Z,6.40
2019-01-13T00:47:58.284Z,6.40
2019-01-13T00:50:29.072Z,6.40
2019-01-13T00:52:59.674Z,6.40
2019-01-13T00:55:30.896Z,6.40
2019-01-13T00:58:01.841Z,6.40
2019-01-13T01:00:32.631Z,6.40
2019-01-13T01:03:03.923Z,6.40
2019-01-13T01:05:35.374Z,6.40
2019-01-13T01:08:06.648Z,6.40
2019-01-13T01:10:38.702Z,6.40
2019-01-13T01:13:10.220Z,6.40
2019-01-13T01:15:41.668Z,6.40
2019-01-13T01:18:12.390Z,6.30
2019-01-13T01:20:43.618Z,6.30
2019-01-13T01:23:18.309Z,6.30
2019-01-13T01:25:49.178Z,6.30
2019-01-13T01:28:20.155Z,6.30
2019-01-13T01:30:51.026Z,6.30
2019-01-13T01:33:26.053Z,6.30
2019-01-13T01:35:56.566Z,6.30
2019-01-13T01:38:27.960Z,6.30
2019-01-13T01:40:59.364Z,6.30
2019-01-13T01:43:30.504Z,6.30
2019-01-13T01:46:01.638Z,6.30
2019-01-13T01:48:32.574Z,6.30
2019-01-13T01:51:03.612Z,6.30
2019-01-13T01:53:34.486Z,6.30
2019-01-13T01:56:05.411Z,6.30
2019-01-13T01:58:36.278Z,6.20
2019-01-13T02:01:07.729Z,6.20
2019-01-13T02:03:39.312Z,6.30
2019-01-13T02:06:10.168Z,6.30
2019-01-13T02:08:41.309Z,6.20
2019-01-13T02:11:12.239Z,6.20
2019-01-13T02:13:43.146Z,6.20
2019-01-13T02:16:14.451Z,6.20
2019-01-13T02:18:45.366Z,6.20
2019-01-13T02:21:16.195Z,6.20
2019-01-13T02:23:47.678Z,6.20
2019-01-13T02:26:19.234Z,6.20
2019-01-13T02:28:50.142Z,6.20
2019-01-13T02:31:20.610Z,6.20
2019-01-13T02:33:51.224Z,6.20
2019-01-13T02:36:21.784Z,6.20
2019-01-13T02:38:52.372Z,6.20
2019-01-13T02:41:23.655Z,6.20
2019-01-13T02:43:55.142Z,6.20
2019-01-13T02:50:36.083Z,6.20
2019-01-13T02:53:07.856Z,6.20
2019-01-13T02:55:38.736Z,6.20
2019-01-13T02:58:09.334Z,6.10
2019-01-13T03:00:40.216Z,6.10
2019-01-13T03:03:11.120Z,6.10
2019-01-13T03:05:41.891Z,6.20
2019-01-13T03:08:14.053Z,6.20
2019-01-13T03:10:45.377Z,6.20
2019-01-13T03:13:16.573Z,6.20
2019-01-13T03:15:47.860Z,6.20
2019-01-13T03:18:18.837Z,6.20
2019-01-13T03:20:50.993Z,6.20
2019-01-13T03:23:22.458Z,6.10
2019-01-13T03:25:53.745Z,6.10
2019-01-13T03:28:25.055Z,6.10
2019-01-13T03:30:56.304Z,6.10
2019-01-13T03:33:27.799Z,6.20
2019-01-13T03:35:58.914Z,6.10
2019-01-13T03:38:31.582Z,6.10
2019-01-13T03:41:03.316Z,6.10
2019-01-13T03:43:34.219Z,6.10
2019-01-13T03:46:05.250Z,6.10
2019-01-13T03:48:36.162Z,6.10
2019-01-13T03:51:07.341Z,6.10
2019-01-13T03:53:39.387Z,6.10
2019-01-13T03:56:10.324Z,6.10
2019-01-13T03:58:41.443Z,6.20
2019-01-13T04:01:18.507Z,6.20
2019-01-13T04:03:45.268Z,6.10
2019-01-13T04:06:16.634Z,6.10
2019-01-13T04:08:47.566Z,6.20
2019-01-13T04:11:18.344Z,6.20
2019-01-13T04:13:49.154Z,6.10
2019-01-13T04:16:20.566Z,6.10
2019-01-13T04:18:51.786Z,6.20
2019-01-13T04:21:22.876Z,6.10
2019-01-13T04:23:53.676Z,6.10
2019-01-13T04:26:24.788Z,6.20
2019-01-13T04:28:55.669Z,6.20
2019-01-13T04:31:27.122Z,6.20
2019-01-13T04:33:57.837Z,6.20
2019-01-13T04:36:28.823Z,6.10
2019-01-13T04:38:59.758Z,6.10
2019-01-13T04:41:30.628Z,6.20
2019-01-13T04:44:01.400Z,6.20
2019-01-13T04:46:32.302Z,6.20
2019-01-13T04:49:03.612Z,6.10
2019-01-13T04:51:34.754Z,6.20
2019-01-13T04:54:05.764Z,6.10
2019-01-13T04:56:36.628Z,6.20
2019-01-13T04:59:07.758Z,6.10
2019-01-13T05:01:38.542Z,6.10
2019-01-13T05:04:09.320Z,6.10
2019-01-13T05:06:40.590Z,6.20
2019-01-13T05:09:11.438Z,6.10
2019-01-13T05:11:42.311Z,6.10
2019-01-13T05:14:13.175Z,6.20
2019-01-13T05:16:44.867Z,6.20
2019-01-13T05:19:15.996Z,6.10
2019-01-13T05:21:46.773Z,6.10
2019-01-13T05:24:17.604Z,6.10
2019-01-13T05:26:48.591Z,6.10
2019-01-13T05:29:19.415Z,6.10
2019-01-13T05:31:50.275Z,6.10
2019-01-13T05:34:21.159Z,6.10
2019-01-13T05:36:52.272Z,6.10
2019-01-13T05:39:23.085Z,6.10
2019-01-13T05:41:54.311Z,6.10
2019-01-13T05:44:25.905Z,6.10
2019-01-13T05:46:56.804Z,6.10
2019-01-13T05:49:27.727Z,6.10
2019-01-13T05:51:59.663Z,6.10
2019-01-13T05:54:31.090Z,6.10
2019-01-13T05:57:01.933Z,6.10
2019-01-13T05:59:32.839Z,6.10
2019-01-13T06:02:03.741Z,6.10
2019-01-13T06:04:34.506Z,6.10
2019-01-13T06:07:05.749Z,6.20
2019-01-13T06:09:36.556Z,6.10
2019-01-13T06:12:07.645Z,6.10
2019-01-13T06:14:38.801Z,6.10
2019-01-13T06:17:09.627Z,6.10
2019-01-13T06:19:40.520Z,6.10
2019-01-13T06:22:11.379Z,6.10
2019-01-13T06:24:42.559Z,6.20
2019-01-13T06:27:13.374Z,6.10
2019-01-13T06:29:44.176Z,6.20
2019-01-13T06:32:15.151Z,6.10
2019-01-13T06:34:45.939Z,6.20
2019-01-13T06:37:16.673Z,6.10
2019-01-13T06:39:47.777Z,6.10
2019-01-13T06:42:18.928Z,6.10
2019-01-13T06:44:50.050Z,6.20
2019-01-13T06:47:20.886Z,6.20
2019-01-13T06:49:51.932Z,6.10
2019-01-13T06:52:23.296Z,6.10
2019-01-13T06:54:54.436Z,6.20
2019-01-13T06:57:25.383Z,6.10
2019-01-13T06:59:56.145Z,6.20
2019-01-13T07:02:26.975Z,6.20
2019-01-13T07:04:57.862Z,6.20
2019-01-13T07:07:28.834Z,6.20
2019-01-13T07:09:59.784Z,6.20
2019-01-13T07:12:30.632Z,6.20
2019-01-13T07:15:01.510Z,6.20
2019-01-13T07:17:32.320Z,6.20
2019-01-13T07:20:03.093Z,6.10
2019-01-13T07:22:34.332Z,6.20
2019-01-13T07:25:08.295Z,6.20
2019-01-13T07:27:39.257Z,6.20
2019-01-13T07:30:12.753Z,6.20
2019-01-13T07:32:43.818Z,6.20
2019-01-13T07:35:14.502Z,6.20
2019-01-13T07:37:45.484Z,6.20
2019-01-13T07:40:20.759Z,6.20
2019-01-13T07:42:51.898Z,6.20
2019-01-13T07:45:23.577Z,6.20
2019-01-13T07:47:54.474Z,6.20
2019-01-13T07:50:25.418Z,6.30
2019-01-13T07:52:56.676Z,6.30
2019-01-13T07:55:27.500Z,6.30
2019-01-13T07:57:58.419Z,6.20
2019-01-13T08:00:31.708Z,6.20
2019-01-13T08:03:02.552Z,6.30
2019-01-13T08:05:33.541Z,6.30
2019-01-13T08:08:04.439Z,6.30
2019-01-13T08:10:35.328Z,6.30
2019-01-13T08:13:06.226Z,6.30
2019-01-13T08:15:37.382Z,6.30
2019-01-13T08:18:08.486Z,6.30
2019-01-13T08:20:39.098Z,6.30
2019-01-13T08:23:10.161Z,6.30
2019-01-13T08:25:41.213Z,6.30
2019-01-13T08:28:12.951Z,6.30
2019-01-13T08:30:43.886Z,6.40
2019-01-13T08:33:15.381Z,6.40
2019-01-13T08:35:46.516Z,6.40
2019-01-13T08:38:17.190Z,6.40
2019-01-13T08:40:48.069Z,6.40
2019-01-13T08:43:19.357Z,6.40
2019-01-13T08:45:50.958Z,6.40
2019-01-13T08:48:21.865Z,6.40
2019-01-13T08:50:52.880Z,6.40
2019-01-13T08:53:23.841Z,6.40
2019-01-13T08:55:54.639Z,6.40
2019-01-13T08:58:25.539Z,6.50
2019-01-13T09:00:56.623Z,6.40
2019-01-13T09:03:27.496Z,6.40
2019-01-13T09:05:58.425Z,6.50
2019-01-13T09:08:29.748Z,6.50
2019-01-13T09:11:01.226Z,6.50
2019-01-13T09:13:32.297Z,6.50
2019-01-13T09:16:03.651Z,6.50
2019-01-13T09:18:34.628Z,6.50
2019-01-13T09:21:05.611Z,6.50
2019-01-13T09:23:37.146Z,6.50
2019-01-13T09:26:09.664Z,6.50
2019-01-13T09:28:40.579Z,6.50
2019-01-13T09:31:11.667Z,6.60
2019-01-13T09:33:42.439Z,6.50
2019-01-13T09:36:13.456Z,6.60
2019-01-13T09:38:44.338Z,6.60
2019-01-13T09:41:15.974Z,6.60
2019-01-13T09:43:46.870Z,6.70
2019-01-13T09:46:18.050Z,6.70
2019-01-13T09:48:48.967Z,6.60
2019-01-13T09:51:19.872Z,6.60
2019-01-13T09:53:50.801Z,6.60
2019-01-13T09:56:22.096Z,6.60
2019-01-13T09:58:52.917Z,6.60
2019-01-13T10:01:23.886Z,6.60
2019-01-13T10:03:55.112Z,6.60
2019-01-13T10:06:25.941Z,6.60
2019-01-13T10:08:57.292Z,6.60
2019-01-13T10:11:28.254Z,6.60
2019-01-13T10:13:59.150Z,6.60
2019-01-13T10:16:31.039Z,6.60
2019-01-13T10:19:01.947Z,6.60
2019-01-13T10:21:33.087Z,6.60
2019-01-13T10:24:03.903Z,6.60
2019-01-13T10:26:35.293Z,6.60
2019-01-13T10:29:06.107Z,6.70
2019-01-13T10:31:36.942Z,6.60
2019-01-13T10:34:08.599Z,6.60
2019-01-13T10:36:43.668Z,6.60
2019-01-13T10:39:16.134Z,6.60
2019-01-13T10:41:47.014Z,6.60
2019-01-13T10:44:17.882Z,6.60
2019-01-13T10:46:48.844Z,6.60
2019-01-13T10:49:19.634Z,6.70
2019-01-13T10:51:50.877Z,6.70
2019-01-13T10:54:21.630Z,6.70
2019-01-13T10:56:52.563Z,6.70
2019-01-13T10:59:23.848Z,6.70
2019-01-13T11:01:54.771Z,6.70
2019-01-13T11:04:27.058Z,6.70
2019-01-13T11:06:59.105Z,6.70
2019-01-13T11:09:30.235Z,6.70
2019-01-13T11:12:01.305Z,6.70
2019-01-13T11:14:32.154Z,6.70
2019-01-13T11:17:03.221Z,6.80
2019-01-13T11:19:34.203Z,6.70
2019-01-13T11:22:05.122Z,6.70
2019-01-13T11:24:36.082Z,6.70
2019-01-13T11:27:07.355Z,6.80
2019-01-13T11:29:38.162Z,6.80
2019-01-13T11:32:09.162Z,6.80
2019-01-13T11:34:40.469Z,6.80
2019-01-13T11:37:11.450Z,6.80
2019-01-13T11:39:42.340Z,6.90
2019-01-13T11:42:13.720Z,6.90
2019-01-13T11:44:45.045Z,6.90
2019-01-13T11:47:16.293Z,6.90
2019-01-13T11:49:47.110Z,6.90
2019-01-13T11:52:18.520Z,7.00
2019-01-13T11:54:49.729Z,7.00
2019-01-13T11:57:20.564Z,7.00
2019-01-13T11:59:51.516Z,7.00
2019-01-13T12:02:22.399Z,7.00
2019-01-13T12:04:53.119Z,7.00
2019-01-13T12:07:24.102Z,7.20
2019-01-13T12:09:55.092Z,7.30
2019-01-13T12:12:26.399Z,7.40
2019-01-13T12:14:57.578Z,7.40
2019-01-13T12:17:28.458Z,7.50
2019-01-13T12:19:59.543Z,7.50
2019-01-13T12:22:30.514Z,7.50
2019-01-13T12:25:01.506Z,7.50
2019-01-13T12:27:33.491Z,7.50
2019-01-13T12:30:06.057Z,7.50
2019-01-13T12:32:36.905Z,7.60
2019-01-13T12:35:07.844Z,7.70
2019-01-13T12:37:39.030Z,7.60
2019-01-13T12:40:15.254Z,7.60
2019-01-13T12:42:46.458Z,7.60
2019-01-13T12:45:20.483Z,7.60
2019-01-13T12:47:51.637Z,7.60
2019-01-13T12:50:24.217Z,7.60
2019-01-13T12:52:55.687Z,7.60
2019-01-13T12:55:26.639Z,7.70
2019-01-13T12:57:57.462Z,7.70
2019-01-13T13:00:28.781Z,7.60
2019-01-13T13:02:59.691Z,7.60
2019-01-13T13:05:30.508Z,7.60
2019-01-13T13:08:01.793Z,7.70
2019-01-13T13:10:37.823Z,7.70
2019-01-13T13:13:09.006Z,7.60
2019-01-13T13:15:40.143Z,7.60
2019-01-13T13:18:11.112Z,7.60
2019-01-13T13:20:42.422Z,7.60
2019-01-13T13:23:13.700Z,7.60
2019-01-13T13:25:44.712Z,7.60
2019-01-13T13:28:15.810Z,7.60
2019-01-13T13:30:46.955Z,7.60
2019-01-13T13:33:18.346Z,7.60
2019-01-13T13:35:49.701Z,7.50
2019-01-13T13:38:20.845Z,7.50
2019-01-13T13:40:53.218Z,7.60
2019-01-13T13:43:27.020Z,7.50
2019-01-13T13:45:58.014Z,7.50
2019-01-13T13:48:28.931Z,7.40
2019-01-13T13:51:00.244Z,7.40
2019-01-13T13:53:31.079Z,7.40
2019-01-13T13:56:02.027Z,7.30
2019-01-13T13:58:33.272Z,7.20
2019-01-13T14:01:04.715Z,7.00
2019-01-13T14:03:45.541Z,7.10
2019-01-13T14:06:11.761Z,7.20
2019-01-13T14:08:42.640Z,7.20
2019-01-13T14:11:13.631Z,7.20
2019-01-13T14:13:44.873Z,7.20
2019-01-13T14:16:15.667Z,7.20
2019-01-13T14:18:47.613Z,7.20
2019-01-13T14:21:20.427Z,7.20
2019-01-13T14:23:51.486Z,7.20
2019-01-13T14:26:23.111Z,7.20
2019-01-13T14:28:53.902Z,7.30
2019-01-13T14:31:24.904Z,7.20
2019-01-13T14:33:55.954Z,7.20
2019-01-13T14:36:27.029Z,7.20
2019-01-13T14:38:58.330Z,7.20
2019-01-13T14:41:29.571Z,7.20
2019-01-13T14:44:00.387Z,7.20
2019-01-13T14:46:31.397Z,7.20
2019-01-13T14:49:02.282Z,7.20
2019-01-13T14:51:33.343Z,7.20
2019-01-13T14:54:04.204Z,7.20
2019-01-13T14:56:35.081Z,7.20
2019-01-13T14:59:07.025Z,7.20
2019-01-13T15:01:38.775Z,7.20
2019-01-13T15:04:09.926Z,7.20
2019-01-13T15:06:40.931Z,7.20
2019-01-13T15:09:12.069Z,7.20
2019-01-13T15:11:43.402Z,7.20
2019-01-13T15:14:14.805Z,7.20
2019-01-13T15:16:45.990Z,7.20
2019-01-13T15:19:17.279Z,7.10
2019-01-13T15:21:48.185Z,7.10
2019-01-13T15:24:19.147Z,7.10
2019-01-13T15:26:51.814Z,7.10
2019-01-13T15:29:23.381Z,7.10
2019-01-13T15:31:54.884Z,7.10
2019-01-13T15:34:25.930Z,7.10
2019-01-13T15:36:58.090Z,7.10
2019-01-13T15:39:28.969Z,7.10
2019-01-13T15:42:00.592Z,7.10
2019-01-13T15:44:31.566Z,7.10
2019-01-13T15:47:02.875Z,7.10
2019-01-13T15:49:33.859Z,7.10
2019-01-13T15:52:05.170Z,7.10
2019-01-13T15:54:35.946Z,7.10
2019-01-13T15:57:06.590Z,7.10
2019-01-13T15:59:37.471Z,7.10
2019-01-13T16:02:08.351Z,7.00
2019-01-13T16:04:39.294Z,7.00
2019-01-13T16:07:10.672Z,7.00
2019-01-13T16:09:41.710Z,7.00
2019-01-13T16:12:12.515Z,7.00
2019-01-13T16:14:43.518Z,7.00
2019-01-13T16:17:14.568Z,7.00
2019-01-13T16:19:45.426Z,6.90
2019-01-13T16:22:16.325Z,6.90
2019-01-13T16:24:47.580Z,6.90
2019-01-13T16:27:18.928Z,6.90
2019-01-13T16:29:49.711Z,6.90
2019-01-13T16:32:20.774Z,6.90
2019-01-13T16:34:51.925Z,6.80
2019-01-13T16:37:22.726Z,6.80
2019-01-13T16:39:53.932Z,6.80
2019-01-13T16:42:25.170Z,6.80
2019-01-13T16:44:56.001Z,6.80
2019-01-13T16:47:26.881Z,6.80
2019-01-13T16:49:58.194Z,6.80
2019-01-13T16:52:29.360Z,6.80
2019-01-13T16:55:00.806Z,6.80
2019-01-13T16:57:31.828Z,6.80
2019-01-13T17:00:02.622Z,6.80
2019-01-13T17:02:33.601Z,6.80
2019-01-13T17:05:06.251Z,6.80
2019-01-13T17:07:37.345Z,6.80
2019-01-13T17:10:15.418Z,6.80
2019-01-13T17:12:46.672Z,6.80
2019-01-13T17:15:20.056Z,6.80
2019-01-13T17:17:51.393Z,6.80
2019-01-13T17:20:23.514Z,6.80
2019-01-13T17:22:54.910Z,6.80
2019-01-13T17:25:27.544Z,6.80
2019-01-13T17:27:59.076Z,6.80
2019-01-13T17:30:31.708Z,6.80
2019-01-13T17:33:02.655Z,6.80
2019-01-13T17:35:33.929Z,6.80
2019-01-13T17:38:05.392Z,6.80
2019-01-13T17:40:36.566Z,6.80
2019-01-13T17:43:07.700Z,6.70
2019-01-13T17:45:39.123Z,6.70
2019-01-13T17:48:11.216Z,6.80
2019-01-13T17:50:42.249Z,6.70
2019-01-13T17:53:13.096Z,6.70
2019-01-13T17:55:44.477Z,6.70
2019-01-13T17:58:15.368Z,6.70
2019-01-13T18:00:51.865Z,6.70
2019-01-13T18:03:39.414Z,6.70
2019-01-13T18:06:10.467Z,6.70
2019-01-13T18:08:43.233Z,6.70
2019-01-13T18:11:14.518Z,6.70
2019-01-13T18:13:45.462Z,6.70
2019-01-13T18:16:16.360Z,6.70
2019-01-13T18:18:48.734Z,6.70
2019-01-13T18:21:19.662Z,6.70
2019-01-13T18:23:50.652Z,6.60
2019-01-13T18:26:22.991Z,6.60
2019-01-13T18:28:54.705Z,6.70
2019-01-13T18:31:25.872Z,6.60
2019-01-13T18:33:57.043Z,6.60
2019-01-13T18:36:28.102Z,6.60
2019-01-13T18:38:59.377Z,6.60
2019-01-13T18:41:30.598Z,6.50
2019-01-13T18:44:01.522Z,6.60
2019-01-13T18:46:32.615Z,6.50
2019-01-13T18:49:03.583Z,6.50
2019-01-13T18:51:34.559Z,6.50
2019-01-13T18:54:05.966Z,6.50
2019-01-13T18:56:37.930Z,6.50
2019-01-13T18:59:09.002Z,6.50
2019-01-13T19:01:40.033Z,6.50
2019-01-13T19:04:10.736Z,6.50
2019-01-13T19:06:41.627Z,6.50
2019-01-13T19:09:12.539Z,6.40
2019-01-13T19:11:48.031Z,6.40
2019-01-13T19:14:21.614Z,6.40
2019-01-13T19:16:54.889Z,6.40
2019-01-13T19:19:25.865Z,6.40
2019-01-13T19:21:57.101Z,6.30
2019-01-13T19:24:28.060Z,6.40
2019-01-13T19:26:59.457Z,6.30
2019-01-13T19:29:30.557Z,6.30
2019-01-13T19:32:01.379Z,6.30
2019-01-13T19:34:32.604Z,6.20
2019-01-13T19:37:03.646Z,6.20
2019-01-13T19:39:35.138Z,6.20
2019-01-13T19:42:06.702Z,6.20
2019-01-13T19:44:37.735Z,6.20
2019-01-13T19:47:08.720Z,6.20
2019-01-13T19:49:39.514Z,6.10
2019-01-13T19:52:10.426Z,6.10
2019-01-13T19:54:41.210Z,6.10
2019-01-13T19:57:12.485Z,6.00
2019-01-13T19:59:43.872Z,6.00
2019-01-13T20:02:14.725Z,6.00
2019-01-13T20:04:45.763Z,6.00
2019-01-13T20:07:16.973Z,5.90
2019-01-13T20:09:48.007Z,5.90
2019-01-13T20:12:19.212Z,5.90
2019-01-13T20:14:50.274Z,5.90
2019-01-13T20:17:22.120Z,5.90
2019-01-13T20:19:53.347Z,5.90
2019-01-13T20:22:24.532Z,5.90
2019-01-13T20:24:55.320Z,5.90
2019-01-13T20:27:26.317Z,5.90
2019-01-13T20:29:57.197Z,5.90
2019-01-13T20:32:28.251Z,5.80
2019-01-13T20:35:00.099Z,5.80
2019-01-13T20:37:31.101Z,5.80
2019-01-13T20:40:02.905Z,5.80
2019-01-13T20:42:34.636Z,5.80
2019-01-13T20:45:08.561Z,5.80
2019-01-13T20:47:39.652Z,5.80
2019-01-13T20:50:13.279Z,5.70
2019-01-13T20:52:44.270Z,5.70
2019-01-13T20:55:16.514Z,5.70
2019-01-13T20:57:47.669Z,5.70
2019-01-13T21:00:27.497Z,5.70
2019-01-13T21:03:00.326Z,5.60
2019-01-13T21:05:32.333Z,5.60
2019-01-13T21:08:04.190Z,5.60
2019-01-13T21:10:35.805Z,5.60
2019-01-13T21:13:06.922Z,5.60
2019-01-13T21:15:38.253Z,5.60
2019-01-13T21:18:08.944Z,5.60
2019-01-13T21:20:40.741Z,5.60
2019-01-13T21:23:12.802Z,5.50
2019-01-13T21:25:45.042Z,5.50
2019-01-13T21:28:16.002Z,5.50
2019-01-13T21:30:47.219Z,5.50
2019-01-13T21:33:18.779Z,5.50
2019-01-13T21:35:49.802Z,5.40
2019-01-13T21:38:21.894Z,5.40
2019-01-13T21:40:53.441Z,5.50
2019-01-13T21:43:24.304Z,5.50
2019-01-13T21:45:55.290Z,5.40
2019-01-13T21:48:26.183Z,5.40
2019-01-13T21:50:56.994Z,5.40
2019-01-13T21:53:28.090Z,5.40
2019-01-13T21:55:58.733Z,5.40
2019-01-13T21:58:29.515Z,5.40
2019-01-13T22:01:00.633Z,5.30
2019-01-13T22:03:31.408Z,5.30
2019-01-13T22:06:02.250Z,5.30
2019-01-13T22:08:33.146Z,5.30
2019-01-13T22:11:04.292Z,5.30
2019-01-13T22:13:35.329Z,5.30
2019-01-13T22:16:06.378Z,5.30
2019-01-13T22:18:37.261Z,5.30
2019-01-13T22:21:08.006Z,5.30
2019-01-13T22:23:39.158Z,5.20
2019-01-13T22:26:10.945Z,5.30
2019-01-13T22:28:41.979Z,5.20
2019-01-13T22:31:12.977Z,5.30
2019-01-13T22:33:43.978Z,5.20
2019-01-13T22:36:15.206Z,5.20
2019-01-13T22:38:46.407Z,5.20
2019-01-13T22:41:18.052Z,5.20
2019-01-13T22:43:48.880Z,5.20
2019-01-13T22:46:19.764Z,5.10
2019-01-13T22:48:50.671Z,5.20
2019-01-13T22:51:21.946Z,5.20
2019-01-13T22:53:53.056Z,5.10
2019-01-13T22:56:24.154Z,5.10
2019-01-13T22:58:55.009Z,5.10
2019-01-13T23:01:28.536Z,5.00
2019-01-13T23:04:01.556Z,5.10
2019-01-13T23:06:39.177Z,5.10
2019-01-13T23:09:12.621Z,5.00
2019-01-13T23:11:44.232Z,5.00
2019-01-13T23:14:18.689Z,5.00
2019-01-13T23:16:52.455Z,5.00
2019-01-13T23:19:27.516Z,5.00
2019-01-13T23:21:58.446Z,5.00
2019-01-13T23:24:30.054Z,4.90
2019-01-13T23:27:00.726Z,4.90
2019-01-13T23:29:31.263Z,4.90
2019-01-13T23:32:02.067Z,5.00
2019-01-13T23:34:33.831Z,4.90
2019-01-13T23:37:06.902Z,4.90
2019-01-13T23:39:39.066Z,4.90
2019-01-13T23:42:11.357Z,4.90
2019-01-13T23:44:50.928Z,4.80
2019-01-13T23:47:23.439Z,4.80
2019-01-13T23:49:55.157Z,4.80
2019-01-13T23:52:27.873Z,4.80
2019-01-13T23:54:58.547Z,4.80
2019-01-13T23:57:31.805Z,4.80
